LEGE/GRO METAR and TAF weather

Enter ICAO airport designator
Station Type Date Time Source
LEGE METAR 2021/03/06 01:30 UTC NOAA

LEGE 060130Z 01005KT 350V050 9999 -RA FEW025 OVC075 10/09 Q1020


Station Type Date Time Source
LEGE Decoded METAR 2021/03/06 01:30 UTC NOAA

Gerona / Costa Brava, Spain (LEGE) 41-54N 002-46E 129M
Mar 05, 2021 - 08:30 PM EST / 2021.03.06 0130 UTC
Wind: from the N (010 degrees) at 6 MPH (5 KT) (direction variable):0
Visibility: greater than 7 mile(s):0
Sky conditions: overcast
Weather: light rain
Temperature: 50 F (10 C)
Dew Point: 48 F (9 C)
Relative Humidity: 93%
Pressure (altimeter): 30.12 in. Hg (1020 hPa)
ob: LEGE 060130Z 01005KT 350V050 9999 -RA FEW025 OVC075 10/09 Q1020
cycle: 1

Station Type Date Time Source
LEGE TAF 2021/03/05 18:27 UTC NOAA

TAF LEGE 051700Z 0518/0618 VRB04KT 9999 FEW016 OVC030 TX14/0613Z TN09/0606Z
TEMPO 0518/0524 SHRA FEW020TCU PROB40
TEMPO 0600/0607 3000 BR BKN008

Example: see airport list